sensor_id;sensor_type;location;lat;lon;timestamp;temperature;humidity
22781;DHT22;11557;50.884;4.322;2022-12-18T00:00:59;-0.50;99.90
22781;DHT22;11557;50.884;4.322;2022-12-18T00:03:25;-0.20;99.90
22781;DHT22;11557;50.884;4.322;2022-12-18T00:05:52;-0.60;99.90
22781;DHT22;11557;50.884;4.322;2022-12-18T00:08:18;-0.40;99.90
22781;DHT22;11557;50.884;4.322;2022-12-18T00:10:46;-0.50;99.90
22781;DHT22;11557;50.884;4.322;2022-12-18T00:13:12;0.30;99.90
22781;DHT22;11557;50.884;4.322;2022-12-18T00:15:39;-0.30;99.90
22781;DHT22;11557;50.884;4.322;2022-12-18T00:18:05;-0.20;99.90
22781;DHT22;11557;50.884;4.322;2022-12-18T00:20:35;-0.30;99.90
22781;DHT22;11557;50.884;4.322;2022-12-18T00:23:01;-0.10;99.90
22781;DHT22;11557;50.884;4.322;2022-12-18T00:25:26;-0.20;99.90
22781;DHT22;11557;50.884;4.322;2022-12-18T00:27:52;0.50;99.90
22781;DHT22;11557;50.884;4.322;2022-12-18T00:30:18;0.30;99.90
22781;DHT22;11557;50.884;4.322;2022-12-18T00:32:43;-0.40;99.90
22781;DHT22;11557;50.884;4.322;2022-12-18T00:35:10;-0.40;99.90
22781;DHT22;11557;50.884;4.322;2022-12-18T00:37:36;0.40;99.90
22781;DHT22;11557;50.884;4.322;2022-12-18T00:40:02;-0.40;99.90
22781;DHT22;11557;50.884;4.322;2022-12-18T00:42:28;-0.50;99.90
22781;DHT22;11557;50.884;4.322;2022-12-18T00:45:12;0.40;99.90
22781;DHT22;11557;50.884;4.322;2022-12-18T00:47:38;-0.60;99.90
22781;DHT22;11557;50.884;4.322;2022-12-18T00:50:04;0.00;99.90
22781;DHT22;11557;50.884;4.322;2022-12-18T00:52:30;-0.70;99.90
22781;DHT22;11557;50.884;4.322;2022-12-18T00:54:56;-0.70;99.90
22781;DHT22;11557;50.884;4.322;2022-12-18T00:57:22;0.10;99.90
22781;DHT22;11557;50.884;4.322;2022-12-18T00:59:50;-0.70;99.90
22781;DHT22;11557;50.884;4.322;2022-12-18T01:02:16;-0.40;99.90
22781;DHT22;11557;50.884;4.322;2022-12-18T01:04:41;0.10;99.90
22781;DHT22;11557;50.884;4.322;2022-12-18T01:07:07;0.40;99.90
22781;DHT22;11557;50.884;4.322;2022-12-18T01:09:32;-0.30;99.90
22781;DHT22;11557;50.884;4.322;2022-12-18T01:11:58;-0.40;99.90
22781;DHT22;11557;50.884;4.322;2022-12-18T01:14:24;0.00;99.90
22781;DHT22;11557;50.884;4.322;2022-12-18T01:16:49;-0.70;99.90
22781;DHT22;11557;50.884;4.322;2022-12-18T01:19:15;-0.40;99.90
22781;DHT22;11557;50.884;4.322;2022-12-18T01:21:41;-0.90;99.90
22781;DHT22;11557;50.884;4.322;2022-12-18T01:24:06;-1.00;99.90
22781;DHT22;11557;50.884;4.322;2022-12-18T01:26:32;-1.20;99.90
22781;DHT22;11557;50.884;4.322;2022-12-18T01:28:58;-0.20;99.90
22781;DHT22;11557;50.884;4.322;2022-12-18T01:31:26;-1.10;99.90
22781;DHT22;11557;50.884;4.322;2022-12-18T01:33:53;-1.10;99.90
22781;DHT22;11557;50.884;4.322;2022-12-18T01:36:27;-1.30;99.90
22781;DHT22;11557;50.884;4.322;2022-12-18T01:38:54;-1.20;99.90
22781;DHT22;11557;50.884;4.322;2022-12-18T01:41:23;-0.80;99.90
22781;DHT22;11557;50.884;4.322;2022-12-18T01:43:54;-1.00;99.90
22781;DHT22;11557;50.884;4.322;2022-12-18T01:46:22;-1.10;99.90
22781;DHT22;11557;50.884;4.322;2022-12-18T01:49:00;0.10;99.90
22781;DHT22;11557;50.884;4.322;2022-12-18T01:51:28;-0.90;99.90
22781;DHT22;11557;50.884;4.322;2022-12-18T01:53:55;-0.10;99.90
22781;DHT22;11557;50.884;4.322;2022-12-18T01:56:21;-0.80;99.90
22781;DHT22;11557;50.884;4.322;2022-12-18T01:58:52;-0.80;99.90
22781;DHT22;11557;50.884;4.322;2022-12-18T02:01:21;0.10;99.90
22781;DHT22;11557;50.884;4.322;2022-12-18T02:03:47;-0.80;99.90
22781;DHT22;11557;50.884;4.322;2022-12-18T02:06:29;-1.00;99.90
22781;DHT22;11557;50.884;4.322;2022-12-18T02:09:40;-1.00;99.90
22781;DHT22;11557;50.884;4.322;2022-12-18T02:11:59;-1.00;99.90
22781;DHT22;11557;50.884;4.322;2022-12-18T02:20:13;-0.80;99.90
22781;DHT22;11557;50.884;4.322;2022-12-18T02:22:55;-0.70;99.90
22781;DHT22;11557;50.884;4.322;2022-12-18T02:26:55;-0.90;99.90
22781;DHT22;11557;50.884;4.322;2022-12-18T02:28:55;-0.90;99.90
22781;DHT22;11557;50.884;4.322;2022-12-18T02:31:26;-1.00;99.90
22781;DHT22;11557;50.884;4.322;2022-12-18T02:33:57;-1.00;99.90
22781;DHT22;11557;50.884;4.322;2022-12-18T02:36:24;-1.00;99.90
22781;DHT22;11557;50.884;4.322;2022-12-18T02:38:52;-0.40;99.90
22781;DHT22;11557;50.884;4.322;2022-12-18T02:41:18;-1.10;99.90
22781;DHT22;11557;50.884;4.322;2022-12-18T02:43:48;-1.00;99.90
22781;DHT22;11557;50.884;4.322;2022-12-18T02:46:28;-1.00;99.90
22781;DHT22;11557;50.884;4.322;2022-12-18T02:51:55;-1.00;99.90
22781;DHT22;11557;50.884;4.322;2022-12-18T03:00:00;-1.10;99.90
22781;DHT22;11557;50.884;4.322;2022-12-18T03:02:41;-0.70;99.90
22781;DHT22;11557;50.884;4.322;2022-12-18T03:05:17;-1.20;99.90
22781;DHT22;11557;50.884;4.322;2022-12-18T03:07:57;-1.20;99.90
22781;DHT22;11557;50.884;4.322;2022-12-18T03:10:27;-1.20;99.90
22781;DHT22;11557;50.884;4.322;2022-12-18T03:13:00;-1.20;99.90
22781;DHT22;11557;50.884;4.322;2022-12-18T03:15:51;-0.30;99.90
22781;DHT22;11557;50.884;4.322;2022-12-18T03:18:20;-1.00;99.90
22781;DHT22;11557;50.884;4.322;2022-12-18T03:20:48;-1.20;99.90
22781;DHT22;11557;50.884;4.322;2022-12-18T03:23:21;-1.10;99.90
22781;DHT22;11557;50.884;4.322;2022-12-18T03:25:50;-1.10;99.90
22781;DHT22;11557;50.884;4.322;2022-12-18T03:28:21;-1.10;99.90
22781;DHT22;11557;50.884;4.322;2022-12-18T03:30:49;-1.30;99.90
22781;DHT22;11557;50.884;4.322;2022-12-18T03:33:21;-1.30;99.90
22781;DHT22;11557;50.884;4.322;2022-12-18T03:35:49;-0.40;99.90
22781;DHT22;11557;50.884;4.322;2022-12-18T03:38:15;-1.20;99.90
22781;DHT22;11557;50.884;4.322;2022-12-18T03:43:52;-1.20;99.90
22781;DHT22;11557;50.884;4.322;2022-12-18T03:46:28;-1.30;99.90
22781;DHT22;11557;50.884;4.322;2022-12-18T03:49:01;-1.20;99.90
22781;DHT22;11557;50.884;4.322;2022-12-18T03:52:06;-1.20;99.90
22781;DHT22;11557;50.884;4.322;2022-12-18T03:54:33;-1.20;99.90
22781;DHT22;11557;50.884;4.322;2022-12-18T03:57:11;-0.50;99.90
22781;DHT22;11557;50.884;4.322;2022-12-18T03:59:39;-1.30;99.90
22781;DHT22;11557;50.884;4.322;2022-12-18T04:02:06;-0.60;99.90
22781;DHT22;11557;50.884;4.322;2022-12-18T04:04:35;-1.40;99.90
22781;DHT22;11557;50.884;4.322;2022-12-18T04:07:03;-1.40;99.90
22781;DHT22;11557;50.884;4.322;2022-12-18T04:09:31;-1.40;99.90
22781;DHT22;11557;50.884;4.322;2022-12-18T04:11:58;-0.90;99.90
22781;DHT22;11557;50.884;4.322;2022-12-18T04:14:24;-1.40;99.90
22781;DHT22;11557;50.884;4.322;2022-12-18T04:16:49;-0.80;99.90
22781;DHT22;11557;50.884;4.322;2022-12-18T04:19:15;-0.20;99.90
22781;DHT22;11557;50.884;4.322;2022-12-18T04:21:41;-0.80;99.90
22781;DHT22;11557;50.884;4.322;2022-12-18T04:24:06;-1.40;99.90
22781;DHT22;11557;50.884;4.322;2022-12-18T04:26:32;-1.50;99.90
22781;DHT22;11557;50.884;4.322;2022-12-18T04:28:58;-1.60;99.90
22781;DHT22;11557;50.884;4.322;2022-12-18T04:31:23;-1.60;99.90
22781;DHT22;11557;50.884;4.322;2022-12-18T04:33:51;-1.70;99.90
22781;DHT22;11557;50.884;4.322;2022-12-18T04:36:17;-1.70;99.90
22781;DHT22;11557;50.884;4.322;2022-12-18T04:38:42;-0.10;99.90
22781;DHT22;11557;50.884;4.322;2022-12-18T04:41:08;-1.40;99.90
22781;DHT22;11557;50.884;4.322;2022-12-18T04:43:34;-1.60;99.90
22781;DHT22;11557;50.884;4.322;2022-12-18T04:46:07;-1.60;99.90
22781;DHT22;11557;50.884;4.322;2022-12-18T04:48:33;-1.10;99.90
22781;DHT22;11557;50.884;4.322;2022-12-18T04:50:59;-1.60;99.90
22781;DHT22;11557;50.884;4.322;2022-12-18T04:53:24;-1.60;99.90
22781;DHT22;11557;50.884;4.322;2022-12-18T04:55:50;-1.50;99.90
22781;DHT22;11557;50.884;4.322;2022-12-18T04:58:16;-1.50;99.90
22781;DHT22;11557;50.884;4.322;2022-12-18T05:00:42;-1.60;99.90
22781;DHT22;11557;50.884;4.322;2022-12-18T05:03:07;-1.60;99.90
22781;DHT22;11557;50.884;4.322;2022-12-18T05:05:34;-1.50;99.90
22781;DHT22;11557;50.884;4.322;2022-12-18T05:08:00;-1.40;99.90
22781;DHT22;11557;50.884;4.322;2022-12-18T05:10:26;-1.40;99.90
22781;DHT22;11557;50.884;4.322;2022-12-18T05:12:51;-0.40;99.90
22781;DHT22;11557;50.884;4.322;2022-12-18T05:15:30;-1.40;99.90
22781;DHT22;11557;50.884;4.322;2022-12-18T05:17:56;-1.40;99.90
22781;DHT22;11557;50.884;4.322;2022-12-18T05:20:23;-1.60;99.90
22781;DHT22;11557;50.884;4.322;2022-12-18T05:22:49;-1.60;99.90
22781;DHT22;11557;50.884;4.322;2022-12-18T05:25:14;-1.60;99.90
22781;DHT22;11557;50.884;4.322;2022-12-18T05:27:40;-1.50;99.90
22781;DHT22;11557;50.884;4.322;2022-12-18T05:30:07;-1.60;99.90
22781;DHT22;11557;50.884;4.322;2022-12-18T05:32:33;-1.60;99.90
22781;DHT22;11557;50.884;4.322;2022-12-18T05:34:59;-1.20;99.90
22781;DHT22;11557;50.884;4.322;2022-12-18T05:37:24;-1.30;99.90
22781;DHT22;11557;50.884;4.322;2022-12-18T05:39:50;-1.50;99.90
22781;DHT22;11557;50.884;4.322;2022-12-18T05:42:15;-1.50;99.90
22781;DHT22;11557;50.884;4.322;2022-12-18T05:44:41;-1.10;99.90
22781;DHT22;11557;50.884;4.322;2022-12-18T05:47:08;-1.70;99.90
22781;DHT22;11557;50.884;4.322;2022-12-18T05:49:35;-1.30;99.90
22781;DHT22;11557;50.884;4.322;2022-12-18T05:52:01;-1.10;99.90
22781;DHT22;11557;50.884;4.322;2022-12-18T05:54:27;-1.40;99.90
22781;DHT22;11557;50.884;4.322;2022-12-18T05:56:53;-1.30;99.90
22781;DHT22;11557;50.884;4.322;2022-12-18T05:59:19;-1.50;99.90
22781;DHT22;11557;50.884;4.322;2022-12-18T06:01:45;-1.10;99.90
22781;DHT22;11557;50.884;4.322;2022-12-18T06:04:11;-1.40;99.90
22781;DHT22;11557;50.884;4.322;2022-12-18T06:06:36;-1.30;99.90
22781;DHT22;11557;50.884;4.322;2022-12-18T06:09:03;-0.70;99.90
22781;DHT22;11557;50.884;4.322;2022-12-18T06:11:36;-1.50;99.90
22781;DHT22;11557;50.884;4.322;2022-12-18T06:14:02;-1.60;99.90
22781;DHT22;11557;50.884;4.322;2022-12-18T06:16:29;-0.70;99.90
22781;DHT22;11557;50.884;4.322;2022-12-18T06:18:59;-0.70;99.90
22781;DHT22;11557;50.884;4.322;2022-12-18T06:21:24;-0.70;99.90
22781;DHT22;11557;50.884;4.322;2022-12-18T06:23:50;-0.80;99.90
22781;DHT22;11557;50.884;4.322;2022-12-18T06:26:16;-1.30;99.90
22781;DHT22;11557;50.884;4.322;2022-12-18T06:28:42;-1.80;99.90
22781;DHT22;11557;50.884;4.322;2022-12-18T06:31:09;-1.70;99.90
22781;DHT22;11557;50.884;4.322;2022-12-18T06:33:35;-0.90;99.90
22781;DHT22;11557;50.884;4.322;2022-12-18T06:38:28;-1.60;99.90
22781;DHT22;11557;50.884;4.322;2022-12-18T06:40:53;-0.70;99.90
22781;DHT22;11557;50.884;4.322;2022-12-18T06:43:19;-1.50;99.90
22781;DHT22;11557;50.884;4.322;2022-12-18T06:45:44;-1.70;99.90
22781;DHT22;11557;50.884;4.322;2022-12-18T06:48:11;-1.90;99.90
22781;DHT22;11557;50.884;4.322;2022-12-18T06:50:37;-1.70;99.90
22781;DHT22;11557;50.884;4.322;2022-12-18T06:53:02;-1.70;99.90
22781;DHT22;11557;50.884;4.322;2022-12-18T06:55:28;-1.80;99.90
22781;DHT22;11557;50.884;4.322;2022-12-18T06:57:54;-1.60;99.90
22781;DHT22;11557;50.884;4.322;2022-12-18T07:00:19;-1.50;99.90
22781;DHT22;11557;50.884;4.322;2022-12-18T07:02:45;-1.50;99.90
22781;DHT22;11557;50.884;4.322;2022-12-18T07:05:11;-0.80;99.90
22781;DHT22;11557;50.884;4.322;2022-12-18T07:07:39;-1.70;99.90
22781;DHT22;11557;50.884;4.322;2022-12-18T07:10:04;-1.70;99.90
22781;DHT22;11557;50.884;4.322;2022-12-18T07:12:30;-1.60;99.90
22781;DHT22;11557;50.884;4.322;2022-12-18T07:14:56;-1.60;99.90
22781;DHT22;11557;50.884;4.322;2022-12-18T07:17:21;-1.40;99.90
22781;DHT22;11557;50.884;4.322;2022-12-18T07:19:47;-0.80;99.90
22781;DHT22;11557;50.884;4.322;2022-12-18T07:22:13;-1.10;99.90
22781;DHT22;11557;50.884;4.322;2022-12-18T07:24:39;-1.10;99.90
22781;DHT22;11557;50.884;4.322;2022-12-18T07:27:04;-0.60;99.90
22781;DHT22;11557;50.884;4.322;2022-12-18T07:29:30;-1.60;99.90
22781;DHT22;11557;50.884;4.322;2022-12-18T07:31:56;-1.70;99.90
22781;DHT22;11557;50.884;4.322;2022-12-18T07:34:22;-1.70;99.90
22781;DHT22;11557;50.884;4.322;2022-12-18T07:36:47;-1.30;99.90
22781;DHT22;11557;50.884;4.322;2022-12-18T07:39:13;-1.70;99.90
22781;DHT22;11557;50.884;4.322;2022-12-18T07:41:39;-1.70;99.90
22781;DHT22;11557;50.884;4.322;2022-12-18T07:44:11;-1.60;99.90
22781;DHT22;11557;50.884;4.322;2022-12-18T07:46:37;-1.60;99.90
22781;DHT22;11557;50.884;4.322;2022-12-18T07:49:03;-1.60;99.90
22781;DHT22;11557;50.884;4.322;2022-12-18T07:51:29;-1.70;99.90
22781;DHT22;11557;50.884;4.322;2022-12-18T07:53:54;-1.30;99.90
22781;DHT22;11557;50.884;4.322;2022-12-18T07:56:20;-1.80;99.90
22781;DHT22;11557;50.884;4.322;2022-12-18T07:58:46;-1.70;99.90
22781;DHT22;11557;50.884;4.322;2022-12-18T08:01:12;-1.60;99.90
22781;DHT22;11557;50.884;4.322;2022-12-18T08:03:39;-1.60;99.90
22781;DHT22;11557;50.884;4.322;2022-12-18T08:06:07;-1.70;99.90
22781;DHT22;11557;50.884;4.322;2022-12-18T08:08:33;-1.70;99.90
22781;DHT22;11557;50.884;4.322;2022-12-18T08:10:59;-1.80;99.90
22781;DHT22;11557;50.884;4.322;2022-12-18T08:13:26;-1.60;99.90
22781;DHT22;11557;50.884;4.322;2022-12-18T08:15:59;-1.70;99.90
22781;DHT22;11557;50.884;4.322;2022-12-18T08:18:26;-1.60;99.90
22781;DHT22;11557;50.884;4.322;2022-12-18T08:20:51;-1.50;99.90
22781;DHT22;11557;50.884;4.322;2022-12-18T08:23:17;-1.60;99.90
22781;DHT22;11557;50.884;4.322;2022-12-18T08:25:43;-1.60;99.90
22781;DHT22;11557;50.884;4.322;2022-12-18T08:28:09;-1.40;99.90
22781;DHT22;11557;50.884;4.322;2022-12-18T08:30:35;-0.60;99.90
22781;DHT22;11557;50.884;4.322;2022-12-18T08:33:01;-0.60;99.90
22781;DHT22;11557;50.884;4.322;2022-12-18T08:35:27;-1.20;99.90
22781;DHT22;11557;50.884;4.322;2022-12-18T08:37:53;-0.20;99.90
22781;DHT22;11557;50.884;4.322;2022-12-18T08:40:19;-1.10;99.90
22781;DHT22;11557;50.884;4.322;2022-12-18T08:42:45;-0.80;99.90
22781;DHT22;11557;50.884;4.322;2022-12-18T08:45:29;-1.10;99.90
22781;DHT22;11557;50.884;4.322;2022-12-18T08:47:54;-1.00;99.90
22781;DHT22;11557;50.884;4.322;2022-12-18T08:50:20;-1.00;99.90
22781;DHT22;11557;50.884;4.322;2022-12-18T08:52:46;-0.40;99.90
22781;DHT22;11557;50.884;4.322;2022-12-18T08:55:12;-0.30;99.90
22781;DHT22;11557;50.884;4.322;2022-12-18T08:57:37;-0.80;99.90
22781;DHT22;11557;50.884;4.322;2022-12-18T09:00:04;0.00;99.90
22781;DHT22;11557;50.884;4.322;2022-12-18T09:02:30;-0.80;99.90
22781;DHT22;11557;50.884;4.322;2022-12-18T09:04:55;0.00;99.90
22781;DHT22;11557;50.884;4.322;2022-12-18T09:07:21;0.00;99.90
22781;DHT22;11557;50.884;4.322;2022-12-18T09:09:46;-0.50;99.90
22781;DHT22;11557;50.884;4.322;2022-12-18T09:12:12;-0.50;99.90
22781;DHT22;11557;50.884;4.322;2022-12-18T09:14:38;0.00;99.90
22781;DHT22;11557;50.884;4.322;2022-12-18T09:17:03;0.00;99.90
22781;DHT22;11557;50.884;4.322;2022-12-18T09:19:29;-0.40;99.90
22781;DHT22;11557;50.884;4.322;2022-12-18T09:21:55;-0.40;99.90
22781;DHT22;11557;50.884;4.322;2022-12-18T09:24:20;-0.40;99.90
22781;DHT22;11557;50.884;4.322;2022-12-18T09:26:46;-0.40;99.90
22781;DHT22;11557;50.884;4.322;2022-12-18T09:29:13;0.70;99.90
22781;DHT22;11557;50.884;4.322;2022-12-18T09:31:40;0.00;99.90
22781;DHT22;11557;50.884;4.322;2022-12-18T09:34:05;-0.30;99.90
22781;DHT22;11557;50.884;4.322;2022-12-18T09:36:31;0.50;99.90
22781;DHT22;11557;50.884;4.322;2022-12-18T09:38:57;0.60;99.90
22781;DHT22;11557;50.884;4.322;2022-12-18T09:47:11;0.30;99.90
22781;DHT22;11557;50.884;4.322;2022-12-18T09:49:44;0.40;99.90
22781;DHT22;11557;50.884;4.322;2022-12-18T09:52:39;0.40;99.90
22781;DHT22;11557;50.884;4.322;2022-12-18T09:55:23;0.70;99.90
22781;DHT22;11557;50.884;4.322;2022-12-18T09:57:54;0.60;99.90
22781;DHT22;11557;50.884;4.322;2022-12-18T10:00:23;0.60;99.90
22781;DHT22;11557;50.884;4.322;2022-12-18T10:02:51;0.70;99.90
22781;DHT22;11557;50.884;4.322;2022-12-18T10:05:35;1.10;99.90
22781;DHT22;11557;50.884;4.322;2022-12-18T10:08:11;0.80;99.90
22781;DHT22;11557;50.884;4.322;2022-12-18T10:16:35;1.30;99.90
22781;DHT22;11557;50.884;4.322;2022-12-18T10:21:32;1.10;99.90
22781;DHT22;11557;50.884;4.322;2022-12-18T10:26:36;0.90;99.90
22781;DHT22;11557;50.884;4.322;2022-12-18T10:29:09;1.00;99.90
22781;DHT22;11557;50.884;4.322;2022-12-18T10:31:36;1.70;99.90
22781;DHT22;11557;50.884;4.322;2022-12-18T10:34:02;1.80;99.90
22781;DHT22;11557;50.884;4.322;2022-12-18T10:36:27;1.60;99.90
22781;DHT22;11557;50.884;4.322;2022-12-18T10:38:54;1.50;99.90
22781;DHT22;11557;50.884;4.322;2022-12-18T10:41:26;1.30;99.90
22781;DHT22;11557;50.884;4.322;2022-12-18T10:44:18;1.70;99.90
22781;DHT22;11557;50.884;4.322;2022-12-18T10:46:46;1.40;99.90
22781;DHT22;11557;50.884;4.322;2022-12-18T10:49:38;1.50;99.90
22781;DHT22;11557;50.884;4.322;2022-12-18T10:52:18;2.10;99.90
22781;DHT22;11557;50.884;4.322;2022-12-18T10:57:38;2.00;99.90
22781;DHT22;11557;50.884;4.322;2022-12-18T11:00:24;1.90;99.90
22781;DHT22;11557;50.884;4.322;2022-12-18T11:02:50;1.60;99.90
22781;DHT22;11557;50.884;4.322;2022-12-18T11:05:43;2.20;99.90
22781;DHT22;11557;50.884;4.322;2022-12-18T11:08:20;1.80;99.90
22781;DHT22;11557;50.884;4.322;2022-12-18T11:10:46;2.20;99.90
22781;DHT22;11557;50.884;4.322;2022-12-18T11:13:17;2.60;99.90
22781;DHT22;11557;50.884;4.322;2022-12-18T11:15:44;2.10;99.90
22781;DHT22;11557;50.884;4.322;2022-12-18T11:18:32;2.30;99.90
22781;DHT22;11557;50.884;4.322;2022-12-18T11:21:06;2.00;99.90
22781;DHT22;11557;50.884;4.322;2022-12-18T11:23:34;2.50;99.90
22781;DHT22;11557;50.884;4.322;2022-12-18T11:26:03;2.20;99.90
22781;DHT22;11557;50.884;4.322;2022-12-18T11:36:49;1.90;99.90
22781;DHT22;11557;50.884;4.322;2022-12-18T11:39:24;2.10;99.90
22781;DHT22;11557;50.884;4.322;2022-12-18T11:42:14;1.70;99.90
22781;DHT22;11557;50.884;4.322;2022-12-18T11:45:02;1.80;99.90
22781;DHT22;11557;50.884;4.322;2022-12-18T11:50:25;1.60;99.90
22781;DHT22;11557;50.884;4.322;2022-12-18T11:52:51;2.70;99.90
22781;DHT22;11557;50.884;4.322;2022-12-18T11:55:49;1.60;99.90
22781;DHT22;11557;50.884;4.322;2022-12-18T12:12:36;1.80;99.90
22781;DHT22;11557;50.884;4.322;2022-12-18T12:18:49;2.00;99.90
22781;DHT22;11557;50.884;4.322;2022-12-18T12:23:41;2.00;99.90
22781;DHT22;11557;50.884;4.322;2022-12-18T12:26:57;2.00;99.90
22781;DHT22;11557;50.884;4.322;2022-12-18T12:32:07;3.10;99.90
22781;DHT22;11557;50.884;4.322;2022-12-18T12:40:06;2.10;99.90
22781;DHT22;11557;50.884;4.322;2022-12-18T12:42:38;2.20;99.90
22781;DHT22;11557;50.884;4.322;2022-12-18T12:45:37;3.10;99.90
22781;DHT22;11557;50.884;4.322;2022-12-18T12:48:10;3.10;99.90
22781;DHT22;11557;50.884;4.322;2022-12-18T12:50:40;3.40;99.90
22781;DHT22;11557;50.884;4.322;2022-12-18T12:53:08;2.40;99.90
22781;DHT22;11557;50.884;4.322;2022-12-18T12:55:35;2.50;99.90
22781;DHT22;11557;50.884;4.322;2022-12-18T12:58:15;3.70;99.90
22781;DHT22;11557;50.884;4.322;2022-12-18T13:04:45;2.50;99.90
22781;DHT22;11557;50.884;4.322;2022-12-18T13:07:16;2.40;99.90
22781;DHT22;11557;50.884;4.322;2022-12-18T13:13:00;2.40;99.90
22781;DHT22;11557;50.884;4.322;2022-12-18T13:15:37;3.30;99.90
22781;DHT22;11557;50.884;4.322;2022-12-18T13:31:00;2.40;99.90
22781;DHT22;11557;50.884;4.322;2022-12-18T13:43:34;2.90;99.90
22781;DHT22;11557;50.884;4.322;2022-12-18T13:46:27;2.00;99.90
22781;DHT22;11557;50.884;4.322;2022-12-18T13:49:20;2.00;99.90
22781;DHT22;11557;50.884;4.322;2022-12-18T13:51:49;2.90;99.90
22781;DHT22;11557;50.884;4.322;2022-12-18T13:54:39;2.80;99.90
22781;DHT22;11557;50.884;4.322;2022-12-18T13:57:25;1.90;99.90
22781;DHT22;11557;50.884;4.322;2022-12-18T13:59:50;2.30;99.90
22781;DHT22;11557;50.884;4.322;2022-12-18T14:02:20;1.80;99.90
22781;DHT22;11557;50.884;4.322;2022-12-18T14:04:47;1.80;99.90
22781;DHT22;11557;50.884;4.322;2022-12-18T14:07:16;2.60;99.90
22781;DHT22;11557;50.884;4.322;2022-12-18T14:09:49;1.80;99.90
22781;DHT22;11557;50.884;4.322;2022-12-18T14:12:18;2.30;99.90
22781;DHT22;11557;50.884;4.322;2022-12-18T14:15:05;2.20;99.90
22781;DHT22;11557;50.884;4.322;2022-12-18T14:17:32;1.80;99.90
22781;DHT22;11557;50.884;4.322;2022-12-18T14:20:00;1.80;99.90
22781;DHT22;11557;50.884;4.322;2022-12-18T14:22:32;1.80;99.90
22781;DHT22;11557;50.884;4.322;2022-12-18T14:25:15;1.70;99.90
22781;DHT22;11557;50.884;4.322;2022-12-18T14:27:46;1.70;99.90
22781;DHT22;11557;50.884;4.322;2022-12-18T14:38:34;2.10;99.90
22781;DHT22;11557;50.884;4.322;2022-12-18T14:41:03;2.10;99.90
22781;DHT22;11557;50.884;4.322;2022-12-18T14:43:31;2.10;99.90
22781;DHT22;11557;50.884;4.322;2022-12-18T14:45:57;2.40;99.90
22781;DHT22;11557;50.884;4.322;2022-12-18T14:48:41;2.00;99.90
22781;DHT22;11557;50.884;4.322;2022-12-18T14:53:41;2.70;99.90
22781;DHT22;11557;50.884;4.322;2022-12-18T14:56:21;1.90;99.90
22781;DHT22;11557;50.884;4.322;2022-12-18T14:58:49;2.30;99.90
22781;DHT22;11557;50.884;4.322;2022-12-18T15:01:20;1.70;99.90
22781;DHT22;11557;50.884;4.322;2022-12-18T15:03:46;1.80;99.90
22781;DHT22;11557;50.884;4.322;2022-12-18T15:06:17;2.90;99.90
22781;DHT22;11557;50.884;4.322;2022-12-18T15:08:43;1.90;99.90
22781;DHT22;11557;50.884;4.322;2022-12-18T15:11:32;2.20;99.90
22781;DHT22;11557;50.884;4.322;2022-12-18T15:13:58;1.90;99.90
22781;DHT22;11557;50.884;4.322;2022-12-18T15:16:24;1.90;99.90
22781;DHT22;11557;50.884;4.322;2022-12-18T15:18:50;1.90;99.90
22781;DHT22;11557;50.884;4.322;2022-12-18T15:21:18;1.80;99.90
22781;DHT22;11557;50.884;4.322;2022-12-18T15:26:12;2.30;99.90
22781;DHT22;11557;50.884;4.322;2022-12-18T15:28:55;1.60;99.90
22781;DHT22;11557;50.884;4.322;2022-12-18T15:31:31;1.70;99.90
22781;DHT22;11557;50.884;4.322;2022-12-18T15:36:24;2.00;99.90
22781;DHT22;11557;50.884;4.322;2022-12-18T15:38:51;1.90;99.90
22781;DHT22;11557;50.884;4.322;2022-12-18T15:41:20;1.90;99.90
22781;DHT22;11557;50.884;4.322;2022-12-18T15:43:48;2.20;99.90
22781;DHT22;11557;50.884;4.322;2022-12-18T15:46:21;1.80;99.90
22781;DHT22;11557;50.884;4.322;2022-12-18T15:48:55;1.90;99.90
22781;DHT22;11557;50.884;4.322;2022-12-18T15:51:25;2.00;99.90
22781;DHT22;11557;50.884;4.322;2022-12-18T15:53:54;1.90;99.90
22781;DHT22;11557;50.884;4.322;2022-12-18T15:56:21;2.80;99.90
22781;DHT22;11557;50.884;4.322;2022-12-18T15:59:14;1.90;99.90
22781;DHT22;11557;50.884;4.322;2022-12-18T16:01:41;2.10;99.90
22781;DHT22;11557;50.884;4.322;2022-12-18T16:04:13;2.80;99.90
22781;DHT22;11557;50.884;4.322;2022-12-18T16:06:40;2.10;99.90
22781;DHT22;11557;50.884;4.322;2022-12-18T16:09:07;2.20;99.90
22781;DHT22;11557;50.884;4.322;2022-12-18T16:11:36;2.10;99.90
22781;DHT22;11557;50.884;4.322;2022-12-18T16:16:43;2.10;99.90
22781;DHT22;11557;50.884;4.322;2022-12-18T16:19:09;3.00;99.90
22781;DHT22;11557;50.884;4.322;2022-12-18T16:21:35;2.30;99.90
22781;DHT22;11557;50.884;4.322;2022-12-18T16:24:01;2.30;99.90
22781;DHT22;11557;50.884;4.322;2022-12-18T16:26:27;2.10;99.90
22781;DHT22;11557;50.884;4.322;2022-12-18T16:28:52;2.10;99.90
22781;DHT22;11557;50.884;4.322;2022-12-18T16:31:18;2.20;99.90
22781;DHT22;11557;50.884;4.322;2022-12-18T16:33:44;2.20;99.90
22781;DHT22;11557;50.884;4.322;2022-12-18T16:36:10;3.30;99.90
22781;DHT22;11557;50.884;4.322;2022-12-18T16:38:35;2.20;99.90
22781;DHT22;11557;50.884;4.322;2022-12-18T16:41:15;3.10;99.90
22781;DHT22;11557;50.884;4.322;2022-12-18T16:43:57;2.20;99.90
22781;DHT22;11557;50.884;4.322;2022-12-18T16:46:24;2.10;99.90
22781;DHT22;11557;50.884;4.322;2022-12-18T16:48:51;2.10;99.90
22781;DHT22;11557;50.884;4.322;2022-12-18T16:51:17;2.60;99.90
22781;DHT22;11557;50.884;4.322;2022-12-18T16:53:42;2.20;99.90
22781;DHT22;11557;50.884;4.322;2022-12-18T16:56:08;2.30;99.90
22781;DHT22;11557;50.884;4.322;2022-12-18T16:58:34;2.60;99.90
22781;DHT22;11557;50.884;4.322;2022-12-18T17:01:01;2.20;99.90
22781;DHT22;11557;50.884;4.322;2022-12-18T17:03:27;2.90;99.90
22781;DHT22;11557;50.884;4.322;2022-12-18T17:05:53;2.60;99.90
22781;DHT22;11557;50.884;4.322;2022-12-18T17:08:18;2.50;99.90
22781;DHT22;11557;50.884;4.322;2022-12-18T17:10:44;2.50;99.90
22781;DHT22;11557;50.884;4.322;2022-12-18T17:13:10;3.00;99.90
22781;DHT22;11557;50.884;4.322;2022-12-18T17:15:36;2.90;99.90
22781;DHT22;11557;50.884;4.322;2022-12-18T17:18:02;2.10;99.90
22781;DHT22;11557;50.884;4.322;2022-12-18T17:20:29;2.30;99.90
22781;DHT22;11557;50.884;4.322;2022-12-18T17:22:58;3.20;99.90
22781;DHT22;11557;50.884;4.322;2022-12-18T17:25:24;2.90;99.90
22781;DHT22;11557;50.884;4.322;2022-12-18T17:27:50;2.30;99.90
22781;DHT22;11557;50.884;4.322;2022-12-18T17:30:16;2.90;99.90
22781;DHT22;11557;50.884;4.322;2022-12-18T17:32:41;2.40;99.90
22781;DHT22;11557;50.884;4.322;2022-12-18T17:35:07;2.40;99.90
22781;DHT22;11557;50.884;4.322;2022-12-18T17:37:33;2.40;99.90
22781;DHT22;11557;50.884;4.322;2022-12-18T17:39:59;2.50;99.90
22781;DHT22;11557;50.884;4.322;2022-12-18T17:42:24;2.40;99.90
22781;DHT22;11557;50.884;4.322;2022-12-18T17:44:50;3.30;99.90
22781;DHT22;11557;50.884;4.322;2022-12-18T17:47:17;2.40;99.90
22781;DHT22;11557;50.884;4.322;2022-12-18T17:49:42;2.60;99.90
22781;DHT22;11557;50.884;4.322;2022-12-18T17:52:08;2.30;99.90
22781;DHT22;11557;50.884;4.322;2022-12-18T17:54:34;3.20;99.90
22781;DHT22;11557;50.884;4.322;2022-12-18T17:57:04;2.20;99.90
22781;DHT22;11557;50.884;4.322;2022-12-18T17:59:30;2.90;99.90